Buoy 46612

sailwx.info

Track history (hours):
 
Tides and Currents Weather Stations Pressure Air Temp Water Temp Dewpoint Dewpoint Depression Visibility Wind Speed Wind Dir Waves Ship Positions

Drifting buoy 46612

Last reported at 2016-Aug-30 04:00 UTC. Time now 2016-Aug-30 04:56 UTC.
Position N 29°27' W 131°21'.

Water temperature 22.0 ° C

Date/timePositionNaut miles runAvg speedWind from/ knotsBaromVisibWave heightAir tempDewpointWater temp
2016-Aug-30 04:00N 29°27' W 131°21'0 0.2 22.0
2016-Aug-30 02:00N 29°27' W 131°21'0 0.4 22.2
2016-Aug-30 01:00N 29°27' W 131°20'1 0.6 22.2
2016-Aug-29 23:00N 29°28' W 131°19'1 0.2 22.2
2016-Aug-29 19:00N 29°29' W 131°19'1 0.1 21.9
2016-Aug-29 12:00N 29°29' W 131°20'1 0.3 21.7
2016-Aug-29 07:00N 29°29' W 131°21'0 0.2 21.7
2016-Aug-29 05:00N 29°29' W 131°21'0 0.0 21.9
2016-Aug-29 04:00N 29°29' W 131°21'1 0.5 21.9
2016-Aug-29 03:00N 29°29' W 131°21'0 0.1 22.0
2016-Aug-29 02:00N 29°29' W 131°21'0 0.2 22.0
2016-Aug-29 00:00N 29°29' W 131°20'0 0.1 22.2
2016-Aug-28 23:00N 29°29' W 131°20'0 0.0 22.1
2016-Aug-28 22:00N 29°29' W 131°20'1 0.4 22.1
2016-Aug-28 19:00N 29°30' W 131°20'0 0.0 21.8
2016-Aug-28 18:00N 29°30' W 131°20'0 0.1 21.8
2016-Aug-28 15:00N 29°30' W 131°20'0 0.5 21.6
2016-Aug-28 14:00N 29°30' W 131°21'0 0.0 21.6
2016-Aug-28 13:00N 29°30' W 131°21'1 0.2 21.6
2016-Aug-28 06:00N 29°31' W 131°23'0 0.0 21.7
2016-Aug-28 05:00N 29°31' W 131°23'0 0.1 21.8
2016-Aug-28 03:00N 29°31' W 131°23'0 0.2 21.9
2016-Aug-28 02:00N 29°31' W 131°23'0 0.2 22.1
2016-Aug-28 01:00N 29°31' W 131°23'0 0.0 22.1
2016-Aug-28 00:00N 29°31' W 131°23'0 0.1 22.4
2016-Aug-27 22:00N 29°31' W 131°23'1 0.4 22.6
2016-Aug-27 18:00N 29°32' W 131°23'0 0.4 21.7
2016-Aug-27 17:00N 29°33' W 131°22'0 0.2 21.5
2016-Aug-27 16:00N 29°33' W 131°23'1 0.6 21.2
2016-Aug-27 15:00N 29°33' W 131°23'0 0.2 21.2
2016-Aug-27 14:00N 29°33' W 131°23'0 0.2 21.4
2016-Aug-27 13:00N 29°33' W 131°23'1 0.2 21.5
2016-Aug-27 06:00N 29°34' W 131°25'1 0.3 22.4
2016-Aug-27 04:00N 29°34' W 131°25'0 0.2 23.1
2016-Aug-27 03:00N 29°34' W 131°25'0 0.1 23.6
2016-Aug-27 01:00N 29°34' W 131°25'0 0.5 24.4
2016-Aug-27 00:00N 29°34' W 131°25'0 0.0 25.0
2016-Aug-26 22:00N 29°34' W 131°25'1 0.4 24.0
2016-Aug-26 19:00N 29°35' W 131°25'0 0.5 21.7
2016-Aug-26 18:00N 29°36' W 131°25'1 0.8 21.3
2016-Aug-26 17:00N 29°36' W 131°25'0 0.2 21.1
2016-Aug-26 15:00N 29°37' W 131°26'0 0.2 21.1
2016-Aug-26 14:00N 29°37' W 131°26'0 0.2 21.1
2016-Aug-26 13:00N 29°37' W 131°26'1 0.2 21.1
2016-Aug-26 06:00N 29°38' W 131°27'1 0.5 21.3
2016-Aug-26 05:00N 29°38' W 131°27'1 0.5 21.3
2016-Aug-26 03:00N 29°38' W 131°28'1 0.6 21.3
2016-Aug-26 02:00N 29°38' W 131°27'0 0.2 21.3
2016-Aug-26 01:00N 29°38' W 131°27'0 0.4 21.5
2016-Aug-26 00:00N 29°39' W 131°27'0 0.0 21.4
2016-Aug-25 22:00N 29°39' W 131°27'2 0.4 21.4
2016-Aug-25 18:00N 29°40' W 131°26'1 0.4 20.9
2016-Aug-25 15:00N 29°41' W 131°27'0 0.4 20.9
2016-Aug-25 14:00N 29°41' W 131°27'0 0.1 21.0
2016-Aug-25 13:00N 29°41' W 131°28'0 0.0 21.0
2016-Aug-25 07:00N 29°41' W 131°27'1 0.7 21.3
2016-Aug-25 06:00N 29°41' W 131°27'1 0.8 21.3
2016-Aug-25 05:00N 29°42' W 131°27'0 0.1 21.4
2016-Aug-25 03:00N 29°42' W 131°27'1 0.4 21.5
2016-Aug-25 01:00N 29°43' W 131°27'0 0.0 21.7
2016-Aug-25 00:00N 29°43' W 131°27'2 0.4 21.8
2016-Aug-24 19:00N 29°45' W 131°27'0 0.0 21.2
2016-Aug-24 18:00N 29°45' W 131°27'1 0.6 21.0
2016-Aug-24 17:00N 29°45' W 131°27'0 0.1 20.8
2016-Aug-24 16:00N 29°45' W 131°27'0 0.1 20.7
2016-Aug-24 15:00N 29°45' W 131°27'0 0.3 20.8
2016-Aug-24 14:00N 29°45' W 131°28'0 0.2 20.8
2016-Aug-24 13:00N 29°46' W 131°28'0 0.0 20.8
2016-Aug-24 07:00N 29°46' W 131°28'0 0.0 21.4
2016-Aug-24 05:00N 29°46' W 131°28'1 0.6 21.6
2016-Aug-24 04:00N 29°46' W 131°27'0 0.0 21.5
2016-Aug-24 03:00N 29°46' W 131°27'1 0.8 21.9
2016-Aug-24 02:00N 29°47' W 131°27'0 0.0 22.1
2016-Aug-24 01:00N 29°47' W 131°27'1 1.4 22.3
2016-Aug-24 00:00N 29°48' W 131°27'1 0.8 22.4
2016-Aug-23 23:00N 29°49' W 131°27'0 0.0 22.1
2016-Aug-23 21:00N 29°49' W 131°27'1 0.6 21.3
2016-Aug-23 19:00N 29°50' W 131°28'0 0.0 20.8
2016-Aug-23 18:00N 29°50' W 131°28'0 0.0 20.7
2016-Aug-23 17:00N 29°50' W 131°28'1 0.9 20.6
2016-Aug-23 16:00N 29°50' W 131°29'0 0.0 20.6
2016-Aug-23 14:00N 29°50' W 131°29'1 0.1 20.6
2016-Aug-23 06:00N 29°51' W 131°28'0 0.4 20.7
2016-Aug-23 05:00N 29°51' W 131°28'1 0.5 20.7
2016-Aug-23 04:00N 29°52' W 131°27'0 0.4 20.7
2016-Aug-23 03:00N 29°52' W 131°28'1 1.1 20.7
2016-Aug-23 02:00N 29°53' W 131°27'0 0.1 20.8
2016-Aug-23 01:00N 29°53' W 131°27'1 0.7 20.8
2016-Aug-23 00:00N 29°54' W 131°27'0 0.0 20.9
2016-Aug-22 23:00N 29°54' W 131°27'1 0.4 20.8
2016-Aug-22 21:00N 29°55' W 131°27'2 0.7 21.4
2016-Aug-22 18:00N 29°56' W 131°29'0 0.0 20.4
2016-Aug-22 17:00N 29°56' W 131°29'0 0.1 20.4
2016-Aug-22 16:00N 29°55' W 131°29'0 0.2 20.4
2016-Aug-22 15:00N 29°56' W 131°30'0 0.1 20.4
2016-Aug-22 13:00N 29°56' W 131°29'0 0.2 20.4
2016-Aug-22 12:00N 29°56' W 131°29'1 0.2 20.4
2016-Aug-22 06:00N 29°57' W 131°28'0 0.3 20.4
2016-Aug-22 05:00N 29°57' W 131°28'2 0.6 20.5
2016-Aug-22 02:00N 29°59' W 131°28'1 1.4 20.6
2016-Aug-22 01:00N 29°60' W 131°28'0 0.0 20.6
2016-Aug-22 00:00N 29°60' W 131°28'0 0.0 20.5
2016-Aug-21 23:00N 29°60' W 131°28'2 2.2 20.5
2016-Aug-21 22:00N 30°02' W 131°29'0 0.1 20.5
2016-Aug-21 19:00N 30°01' W 131°30'0 0.2 20.3
2016-Aug-21 18:00N 30°02' W 131°30'0 0.2 20.2
2016-Aug-21 17:00N 30°01' W 131°30'0 0.1 20.1
2016-Aug-21 16:00N 30°01' W 131°30'0 0.1 20.1
2016-Aug-21 15:00N 30°01' W 131°30'0 0.1 20.1
2016-Aug-21 14:00N 30°02' W 131°30'2 0.3 20.1
2016-Aug-21 06:00N 30°03' W 131°28'1 0.7 20.2
2016-Aug-21 05:00N 30°04' W 131°28'0 0.1 20.3
2016-Aug-21 04:00N 30°04' W 131°28'1 0.6 20.4
2016-Aug-21 03:00N 30°05' W 131°28'0 0.4 20.4
2016-Aug-21 02:00N 30°05' W 131°28'1 1.0 20.5
2016-Aug-21 01:00N 30°06' W 131°28'0 0.4 20.6
2016-Aug-21 00:00N 30°06' W 131°28'1 0.8 20.7
2016-Aug-20 23:00N 30°07' W 131°28'1 1.3 20.7
2016-Aug-20 22:00N 30°08' W 131°29'0 0.1 20.6
2016-Aug-20 17:00N 30°08' W 131°30'0 0.1 20.1
2016-Aug-20 16:00N 30°08' W 131°30'0 0.4 20.1
2016-Aug-20 15:00N 30°08' W 131°30'1 0.8 20.1
2016-Aug-20 14:00N 30°08' W 131°29'0 0.2 20.1
2016-Aug-20 13:00N 30°08' W 131°29'1 0.1 20.1
2016-Aug-20 07:00N 30°08' W 131°29'1 0.7 20.1
2016-Aug-20 06:00N 30°09' W 131°28'1 1.1 20.1
2016-Aug-20 05:00N 30°10' W 131°27'0 0.3 20.1
2016-Aug-20 04:00N 30°10' W 131°27'   20.1
Track history (hours):
 
Tides and Currents Weather Stations Pressure Air Temp Water Temp Dewpoint Dewpoint Depression Visibility Wind Speed Wind Dir Waves Ship Positions

Drifting buoy 46612

Last reported at 2016-Aug-30 04:00 UTC. Time now 2016-Aug-30 04:56 UTC.
Position N 29°27' W 131°21'.

Water temperature 22.0 ° C

Date/timePositionNaut miles runAvg speedWind from/ knotsBaromVisibWave heightAir tempDewpointWater temp
2016-Aug-30 04:00N 29°27' W 131°21'0 0.2 22.0
2016-Aug-30 02:00N 29°27' W 131°21'0 0.4 22.2
2016-Aug-30 01:00N 29°27' W 131°20'1 0.6 22.2
2016-Aug-29 23:00N 29°28' W 131°19'1 0.2 22.2
2016-Aug-29 19:00N 29°29' W 131°19'1 0.1 21.9
2016-Aug-29 12:00N 29°29' W 131°20'1 0.3 21.7
2016-Aug-29 07:00N 29°29' W 131°21'0 0.2 21.7
2016-Aug-29 05:00N 29°29' W 131°21'0 0.0 21.9
2016-Aug-29 04:00N 29°29' W 131°21'1 0.5 21.9
2016-Aug-29 03:00N 29°29' W 131°21'0 0.1 22.0
2016-Aug-29 02:00N 29°29' W 131°21'0 0.2 22.0
2016-Aug-29 00:00N 29°29' W 131°20'0 0.1 22.2
2016-Aug-28 23:00N 29°29' W 131°20'0 0.0 22.1
2016-Aug-28 22:00N 29°29' W 131°20'1 0.4 22.1
2016-Aug-28 19:00N 29°30' W 131°20'0 0.0 21.8
2016-Aug-28 18:00N 29°30' W 131°20'0 0.1 21.8
2016-Aug-28 15:00N 29°30' W 131°20'0 0.5 21.6
2016-Aug-28 14:00N 29°30' W 131°21'0 0.0 21.6
2016-Aug-28 13:00N 29°30' W 131°21'1 0.2 21.6
2016-Aug-28 06:00N 29°31' W 131°23'0 0.0 21.7
2016-Aug-28 05:00N 29°31' W 131°23'0 0.1 21.8
2016-Aug-28 03:00N 29°31' W 131°23'0 0.2 21.9
2016-Aug-28 02:00N 29°31' W 131°23'0 0.2 22.1
2016-Aug-28 01:00N 29°31' W 131°23'0 0.0 22.1
2016-Aug-28 00:00N 29°31' W 131°23'0 0.1 22.4
2016-Aug-27 22:00N 29°31' W 131°23'1 0.4 22.6
2016-Aug-27 18:00N 29°32' W 131°23'0 0.4 21.7
2016-Aug-27 17:00N 29°33' W 131°22'0 0.2 21.5
2016-Aug-27 16:00N 29°33' W 131°23'1 0.6 21.2
2016-Aug-27 15:00N 29°33' W 131°23'0 0.2 21.2
2016-Aug-27 14:00N 29°33' W 131°23'0 0.2 21.4
2016-Aug-27 13:00N 29°33' W 131°23'1 0.2 21.5
2016-Aug-27 06:00N 29°34' W 131°25'1 0.3 22.4
2016-Aug-27 04:00N 29°34' W 131°25'0 0.2 23.1
2016-Aug-27 03:00N 29°34' W 131°25'0 0.1 23.6
2016-Aug-27 01:00N 29°34' W 131°25'0 0.5 24.4
2016-Aug-27 00:00N 29°34' W 131°25'0 0.0 25.0
2016-Aug-26 22:00N 29°34' W 131°25'1 0.4 24.0
2016-Aug-26 19:00N 29°35' W 131°25'0 0.5 21.7
2016-Aug-26 18:00N 29°36' W 131°25'1 0.8 21.3
2016-Aug-26 17:00N 29°36' W 131°25'0 0.2 21.1
2016-Aug-26 15:00N 29°37' W 131°26'0 0.2 21.1
2016-Aug-26 14:00N 29°37' W 131°26'0 0.2 21.1
2016-Aug-26 13:00N 29°37' W 131°26'1 0.2 21.1
2016-Aug-26 06:00N 29°38' W 131°27'1 0.5 21.3
2016-Aug-26 05:00N 29°38' W 131°27'1 0.5 21.3
2016-Aug-26 03:00N 29°38' W 131°28'1 0.6 21.3
2016-Aug-26 02:00N 29°38' W 131°27'0 0.2 21.3
2016-Aug-26 01:00N 29°38' W 131°27'0 0.4 21.5
2016-Aug-26 00:00N 29°39' W 131°27'0 0.0 21.4
2016-Aug-25 22:00N 29°39' W 131°27'2 0.4 21.4
2016-Aug-25 18:00N 29°40' W 131°26'1 0.4 20.9
2016-Aug-25 15:00N 29°41' W 131°27'0 0.4 20.9
2016-Aug-25 14:00N 29°41' W 131°27'0 0.1 21.0
2016-Aug-25 13:00N 29°41' W 131°28'0 0.0 21.0
2016-Aug-25 07:00N 29°41' W 131°27'1 0.7 21.3
2016-Aug-25 06:00N 29°41' W 131°27'1 0.8 21.3
2016-Aug-25 05:00N 29°42' W 131°27'0 0.1 21.4
2016-Aug-25 03:00N 29°42' W 131°27'1 0.4 21.5
2016-Aug-25 01:00N 29°43' W 131°27'0 0.0 21.7
2016-Aug-25 00:00N 29°43' W 131°27'2 0.4 21.8
2016-Aug-24 19:00N 29°45' W 131°27'0 0.0 21.2
2016-Aug-24 18:00N 29°45' W 131°27'1 0.6 21.0
2016-Aug-24 17:00N 29°45' W 131°27'0 0.1 20.8
2016-Aug-24 16:00N 29°45' W 131°27'0 0.1 20.7
2016-Aug-24 15:00N 29°45' W 131°27'0 0.3 20.8
2016-Aug-24 14:00N 29°45' W 131°28'0 0.2 20.8
2016-Aug-24 13:00N 29°46' W 131°28'0 0.0 20.8
2016-Aug-24 07:00N 29°46' W 131°28'0 0.0 21.4
2016-Aug-24 05:00N 29°46' W 131°28'1 0.6 21.6
2016-Aug-24 04:00N 29°46' W 131°27'0 0.0 21.5
2016-Aug-24 03:00N 29°46' W 131°27'1 0.8 21.9
2016-Aug-24 02:00N 29°47' W 131°27'0 0.0 22.1
2016-Aug-24 01:00N 29°47' W 131°27'1 1.4 22.3
2016-Aug-24 00:00N 29°48' W 131°27'1 0.8 22.4
2016-Aug-23 23:00N 29°49' W 131°27'0 0.0 22.1
2016-Aug-23 21:00N 29°49' W 131°27'1 0.6 21.3
2016-Aug-23 19:00N 29°50' W 131°28'0 0.0 20.8
2016-Aug-23 18:00N 29°50' W 131°28'0 0.0 20.7
2016-Aug-23 17:00N 29°50' W 131°28'1 0.9 20.6
2016-Aug-23 16:00N 29°50' W 131°29'0 0.0 20.6
2016-Aug-23 14:00N 29°50' W 131°29'1 0.1 20.6
2016-Aug-23 06:00N 29°51' W 131°28'0 0.4 20.7
2016-Aug-23 05:00N 29°51' W 131°28'1 0.5 20.7
2016-Aug-23 04:00N 29°52' W 131°27'0 0.4 20.7
2016-Aug-23 03:00N 29°52' W 131°28'1 1.1 20.7
2016-Aug-23 02:00N 29°53' W 131°27'0 0.1 20.8
2016-Aug-23 01:00N 29°53' W 131°27'1 0.7 20.8
2016-Aug-23 00:00N 29°54' W 131°27'0 0.0 20.9
2016-Aug-22 23:00N 29°54' W 131°27'1 0.4 20.8
2016-Aug-22 21:00N 29°55' W 131°27'2 0.7 21.4
2016-Aug-22 18:00N 29°56' W 131°29'0 0.0 20.4
2016-Aug-22 17:00N 29°56' W 131°29'0 0.1 20.4
2016-Aug-22 16:00N 29°55' W 131°29'0 0.2 20.4
2016-Aug-22 15:00N 29°56' W 131°30'0 0.1 20.4
2016-Aug-22 13:00N 29°56' W 131°29'0 0.2 20.4
2016-Aug-22 12:00N 29°56' W 131°29'1 0.2 20.4
2016-Aug-22 06:00N 29°57' W 131°28'0 0.3 20.4
2016-Aug-22 05:00N 29°57' W 131°28'2 0.6 20.5
2016-Aug-22 02:00N 29°59' W 131°28'1 1.4 20.6
2016-Aug-22 01:00N 29°60' W 131°28'0 0.0 20.6
2016-Aug-22 00:00N 29°60' W 131°28'0 0.0 20.5
2016-Aug-21 23:00N 29°60' W 131°28'2 2.2 20.5
2016-Aug-21 22:00N 30°02' W 131°29'0 0.1 20.5
2016-Aug-21 19:00N 30°01' W 131°30'0 0.2 20.3
2016-Aug-21 18:00N 30°02' W 131°30'0 0.2 20.2
2016-Aug-21 17:00N 30°01' W 131°30'0 0.1 20.1
2016-Aug-21 16:00N 30°01' W 131°30'0 0.1 20.1
2016-Aug-21 15:00N 30°01' W 131°30'0 0.1 20.1
2016-Aug-21 14:00N 30°02' W 131°30'2 0.3 20.1
2016-Aug-21 06:00N 30°03' W 131°28'1 0.7 20.2
2016-Aug-21 05:00N 30°04' W 131°28'0 0.1 20.3
2016-Aug-21 04:00N 30°04' W 131°28'1 0.6 20.4
2016-Aug-21 03:00N 30°05' W 131°28'0 0.4 20.4
2016-Aug-21 02:00N 30°05' W 131°28'1 1.0 20.5
2016-Aug-21 01:00N 30°06' W 131°28'0 0.4 20.6
2016-Aug-21 00:00N 30°06' W 131°28'1 0.8 20.7
2016-Aug-20 23:00N 30°07' W 131°28'1 1.3 20.7
2016-Aug-20 22:00N 30°08' W 131°29'0 0.1 20.6
2016-Aug-20 17:00N 30°08' W 131°30'0 0.1 20.1
2016-Aug-20 16:00N 30°08' W 131°30'0 0.4 20.1
2016-Aug-20 15:00N 30°08' W 131°30'1 0.8 20.1
2016-Aug-20 14:00N 30°08' W 131°29'0 0.2 20.1
2016-Aug-20 13:00N 30°08' W 131°29'1 0.1 20.1
2016-Aug-20 07:00N 30°08' W 131°29'1 0.7 20.1
2016-Aug-20 06:00N 30°09' W 131°28'1 1.1 20.1
2016-Aug-20 05:00N 30°10' W 131°27'0 0.3 20.1
2016-Aug-20 04:00N 30°10' W 131°27'   20.1

Dump ship's entire track history